Time;durP1;ratioP1;P1;durP2;ratioP2;P2;SDS_P1;SDS_P2;PMS_P1;PMS_P2;Temp;Humidity;BMP_temperature;BMP_pressure;BME280_temperature;BME280_humidity;BME280_pressure;Samples;Min_cycle;Max_cycle;Signal;HPM_P1;HPM_P2
2022/09/27 00:00:22;;;;;;;3.40;1.38;;;;;;;10.92;80.43;98812.78;4179012;28;20052;-58
2022/09/27 00:02:25;;;;;;;1.45;1.10;;;;;;;10.98;80.64;98804.91;4179103;28;20041;-58
2022/09/27 00:04:28;;;;;;;3.65;1.30;;;;;;;11.04;80.92;98809.16;4178114;28;20408;-59
2022/09/27 00:06:32;;;;;;;1.67;1.13;;;;;;;10.96;81.22;98806.66;4162260;28;20045;-58
2022/09/27 00:08:38;;;;;;;3.08;1.33;;;;;;;10.95;80.16;98810.13;4178972;28;20048;-58
2022/09/27 00:10:42;;;;;;;2.95;1.08;;;;;;;10.92;80.82;98813.66;4180129;28;20495;-58
2022/09/27 00:12:45;;;;;;;2.13;1.10;;;;;;;11.01;80.86;98810.09;4178881;28;20556;-58
2022/09/27 00:14:48;;;;;;;1.98;1.00;;;;;;;10.92;80.83;98811.06;4178219;28;20044;-58
2022/09/27 00:16:51;;;;;;;2.47;1.17;;;;;;;11.09;80.91;98813.41;4179290;28;20045;-58
2022/09/27 00:18:59;;;;;;;3.47;0.80;;;;;;;11.00;81.05;98818.75;4180176;28;20049;-58
2022/09/27 00:21:06;;;;;;;1.52;0.90;;;;;;;11.07;80.47;98817.78;4178844;28;20090;-58
2022/09/27 00:23:09;;;;;;;1.30;1.20;;;;;;;11.09;80.56;98813.41;4178602;28;20037;-59
2022/09/27 00:25:12;;;;;;;1.05;0.75;;;;;;;11.11;80.44;98806.47;4179898;28;20075;-58
2022/09/27 00:27:16;;;;;;;1.38;1.05;;;;;;;11.09;80.69;98805.59;4178824;28;20103;-58
2022/09/27 00:29:19;;;;;;;3.33;1.00;;;;;;;10.99;80.24;98810.09;4178871;28;20033;-58
2022/09/27 00:31:25;;;;;;;0.73;0.73;;;;;;;10.90;80.89;98811.97;4180259;28;20037;-58
2022/09/27 00:33:28;;;;;;;0.70;0.70;;;;;;;10.93;81.47;98809.31;4180900;28;20045;-58
2022/09/27 00:35:31;;;;;;;1.55;0.95;;;;;;;10.91;81.42;98798.94;4165140;28;20053;-58
2022/09/27 00:37:34;;;;;;;2.70;1.13;;;;;;;10.90;81.91;98806.75;4181732;28;20132;-58
2022/09/27 00:39:37;;;;;;;1.33;0.90;;;;;;;10.92;80.91;98805.00;4165023;28;20045;-58
2022/09/27 00:41:41;;;;;;;1.10;0.95;;;;;;;10.87;81.71;98799.00;4165178;28;20045;-58
2022/09/27 00:43:48;;;;;;;1.83;1.20;;;;;;;10.88;81.72;98805.91;4180719;28;20049;-58
2022/09/27 00:45:59;;;;;;;2.38;1.00;;;;;;;10.88;81.95;98799.00;4181569;28;20045;-58
2022/09/27 00:48:06;;;;;;;0.95;0.80;;;;;;;10.79;82.18;98796.50;4165009;28;20063;-58
2022/09/27 00:50:20;;;;;;;2.08;0.98;;;;;;;10.81;81.77;98800.81;4181654;28;20056;-58
2022/09/27 00:52:27;;;;;;;1.52;0.98;;;;;;;10.70;82.24;98794.88;4181599;28;20122;-58
2022/09/27 00:54:32;;;;;;;1.50;1.00;;;;;;;10.75;82.49;98798.28;4180666;28;20033;-58
2022/09/27 00:56:37;;;;;;;2.28;1.13;;;;;;;10.82;82.35;98789.53;4181373;28;20045;-58
2022/09/27 00:58:46;;;;;;;1.65;1.08;;;;;;;10.94;81.28;98787.66;4163798;28;20523;-58
2022/09/27 01:00:55;;;;;;;1.02;0.85;;;;;;;10.91;81.30;98783.34;4173113;28;20044;-58
2022/09/27 01:02:59;;;;;;;2.53;1.00;;;;;;;10.89;82.05;98779.03;4181310;28;20140;-58
2022/09/27 01:05:03;;;;;;;2.83;1.00;;;;;;;10.87;82.30;98780.81;4181535;28;20048;-58
2022/09/27 01:07:07;;;;;;;2.35;1.20;;;;;;;10.88;81.46;98782.50;4182162;28;20052;-58
2022/09/27 01:09:11;;;;;;;4.72;1.15;;;;;;;10.95;81.91;98781.53;4182383;28;20041;-58
2022/09/27 01:11:31;;;;;;;1.27;0.98;;;;;;;11.06;80.99;98777.06;4164674;28;20038;-58
2022/09/27 01:13:44;;;;;;;1.40;0.70;;;;;;;11.16;80.64;98783.84;4147365;28;20045;-58
2022/09/27 01:15:58;;;;;;;3.83;1.38;;;;;;;11.16;81.20;98783.84;4164666;28;20096;-59
2022/09/27 01:18:17;;;;;;;1.05;1.00;;;;;;;11.18;80.98;98786.41;4164800;28;20413;-58
2022/09/27 01:20:44;;;;;;;1.30;1.00;;;;;;;11.18;80.31;98782.09;4148172;28;20152;-58
2022/09/27 01:23:03;;;;;;;1.08;0.95;;;;;;;11.11;80.56;98788.25;4164508;28;20037;-58
2022/09/27 01:25:33;;;;;;;1.63;0.93;;;;;;;11.15;81.40;98784.69;4156772;28;20557;-58
2022/09/27 01:28:11;;;;;;;2.88;0.90;;;;;;;11.08;81.11;98785.72;4180551;28;20088;-58
2022/09/27 01:30:21;;;;;;;3.45;1.05;;;;;;;11.09;80.82;98791.75;4162015;28;20454;-59
2022/09/27 01:32:35;;;;;;;1.20;0.93;;;;;;;11.09;80.87;98800.41;4163913;28;20053;-58
2022/09/27 01:34:46;;;;;;;1.42;1.10;;;;;;;11.15;81.13;98795.09;4179943;28;20124;-58
2022/09/27 01:36:54;;;;;;;1.02;0.90;;;;;;;11.17;80.79;98790.75;4164247;28;20037;-58
2022/09/27 01:39:10;;;;;;;2.22;1.05;;;;;;;11.17;80.82;98789.91;4180635;28;20041;-58
2022/09/27 01:41:38;;;;;;;1.80;1.20;;;;;;;11.17;80.81;98795.13;4180093;28;20131;-57
2022/09/27 01:43:59;;;;;;;1.73;1.00;;;;;;;11.16;81.25;98803.78;4196477;28;20104;-58
2022/09/27 01:46:11;;;;;;;1.92;1.10;;;;;;;11.25;80.96;98795.84;4163911;28;20147;-58
2022/09/27 01:48:40;;;;;;;4.95;1.83;;;;;;;11.18;80.77;98796.81;4181523;28;20491;-58
2022/09/27 01:50:57;;;;;;;4.05;1.17;;;;;;;11.20;80.70;98795.06;4180429;28;20041;-58
2022/09/27 01:53:05;;;;;;;4.35;1.30;;;;;;;11.25;80.97;98795.84;4163772;28;20530;-58
2022/09/27 01:55:21;;;;;;;3.40;1.02;;;;;;;11.21;80.42;98790.72;4196583;28;20071;-58
2022/09/27 01:58:22;;;;;;;2.17;0.98;;;;;;;11.24;80.48;98795.88;4167702;28;20139;-58
2022/09/27 02:00:28;;;;;;;3.28;1.67;;;;;;;11.29;80.92;98797.50;4163564;28;20065;-59
2022/09/27 02:02:37;;;;;;;2.88;1.08;;;;;;;11.32;80.27;98789.66;4180310;28;20037;-60
2022/09/27 02:05:06;;;;;;;4.40;2.00;;;;;;;11.28;80.49;98798.38;4160480;28;20045;-59
2022/09/27 02:07:15;;;;;;;5.40;2.20;;;;;;;11.28;80.32;98794.94;4179990;28;20462;-58
2022/09/27 02:09:23;;;;;;;7.07;2.00;;;;;;;11.31;80.11;98800.09;4180185;28;20045;-58
2022/09/27 02:11:30;;;;;;;5.97;2.38;;;;;;;11.31;80.39;98797.50;4179997;28;20079;-58
2022/09/27 02:13:49;;;;;;;3.00;1.60;;;;;;;11.27;80.37;98798.41;4180701;28;20128;-58
2022/09/27 02:16:22;;;;;;;5.00;2.08;;;;;;;11.15;79.94;98802.06;4172845;28;20061;-58
2022/09/27 02:18:32;;;;;;;6.28;1.95;;;;;;;11.12;80.59;98802.97;4179888;28;20037;-58
2022/09/27 02:20:39;;;;;;;8.02;3.40;;;;;;;11.16;79.99;98801.19;4179774;28;20041;-58
2022/09/27 02:22:50;;;;;;;9.55;3.65;;;;;;;11.22;80.00;98802.84;4180055;28;20044;-58
2022/09/27 02:25:00;;;;;;;6.38;2.83;;;;;;;11.28;80.42;98793.19;4179853;28;20098;-59
2022/09/27 02:27:10;;;;;;;10.55;3.38;;;;;;;11.28;80.46;98798.38;4163149;28;20041;-59
2022/09/27 02:29:21;;;;;;;11.25;4.32;;;;;;;11.28;80.65;98802.75;4179774;28;20099;-59
2022/09/27 02:31:27;;;;;;;9.52;4.32;;;;;;;11.21;80.22;98801.13;4179774;28;20572;-59
2022/09/27 02:33:37;;;;;;;6.78;3.17;;;;;;;11.21;80.42;98801.97;4162348;28;20080;-59
2022/09/27 02:35:40;;;;;;;10.70;3.72;;;;;;;11.17;80.50;98800.31;4179701;28;20049;-59
2022/09/27 02:37:44;;;;;;;6.97;2.97;;;;;;;11.20;79.82;98807.19;4179761;28;20496;-59
2022/09/27 02:39:47;;;;;;;6.43;2.88;;;;;;;11.10;80.68;98809.94;4162907;28;20062;-59
2022/09/27 02:41:50;;;;;;;9.18;3.38;;;;;;;11.11;80.80;98819.47;4163317;28;20068;-58
2022/09/27 02:43:57;;;;;;;7.38;3.40;;;;;;;11.14;81.05;98816.81;4178596;28;20044;-59
2022/09/27 02:46:19;;;;;;;6.15;2.53;;;;;;;11.24;80.52;98814.06;4179674;28;20045;-59
2022/09/27 02:48:30;;;;;;;12.75;5.03;;;;;;;11.24;80.26;98822.72;4181175;28;20040;-59
2022/09/27 02:51:01;;;;;;;8.38;4.30;;;;;;;11.20;79.92;98825.41;4179728;28;20033;-59
2022/09/27 02:53:19;;;;;;;7.55;4.10;;;;;;;11.20;80.70;98828.00;4178730;28;20045;-59
2022/09/27 02:55:41;;;;;;;7.57;3.53;;;;;;;11.21;81.03;98827.97;4173690;28;20041;-59
2022/09/27 02:58:14;;;;;;;8.32;3.17;;;;;;;11.12;80.44;98828.97;4180863;28;20037;-58
2022/09/27 03:00:36;;;;;;;3.85;2.47;;;;;;;11.18;81.35;98828.91;4176945;28;20060;-59
2022/09/27 03:03:13;;;;;;;4.25;1.92;;;;;;;11.17;80.17;98834.13;4145341;28;20061;-59
2022/09/27 03:05:35;;;;;;;4.53;1.60;;;;;;;11.09;79.99;98831.63;4173437;28;20040;-59
2022/09/27 03:07:39;;;;;;;3.63;1.60;;;;;;;11.10;80.17;98830.75;4179189;28;20059;-58
2022/09/27 03:09:45;;;;;;;4.25;1.63;;;;;;;11.06;80.53;98834.25;4179347;28;20041;-59
2022/09/27 03:11:48;;;;;;;1.83;1.17;;;;;;;11.01;79.34;98836.09;4179174;28;20507;-59
2022/09/27 03:13:51;;;;;;;5.13;1.38;;;;;;;10.95;79.35;98837.03;4161841;28;20132;-59
2022/09/27 03:16:12;;;;;;;2.35;1.27;;;;;;;10.93;79.46;98843.97;4162735;28;20080;-59
2022/09/27 03:18:28;;;;;;;3.83;1.20;;;;;;;11.01;79.82;98849.09;4179195;28;20095;-58
2022/09/27 03:20:49;;;;;;;3.35;1.20;;;;;;;11.06;79.37;98847.25;4180633;28;20044;-59
2022/09/27 03:22:56;;;;;;;3.00;1.33;;;;;;;11.03;79.27;98855.13;4179036;28;20128;-59
2022/09/27 03:24:59;;;;;;;2.53;1.10;;;;;;;11.03;79.21;98854.25;4178424;28;20528;-59
2022/09/27 03:27:02;;;;;;;3.53;1.40;;;;;;;11.03;79.21;98859.47;4162579;28;20487;-59
2022/09/27 03:29:05;;;;;;;4.88;1.40;;;;;;;11.04;79.56;98862.03;4195628;28;20046;-58
2022/09/27 03:31:09;;;;;;;2.70;1.40;;;;;;;11.05;79.48;98866.34;4179124;28;20490;-59
2022/09/27 03:33:41;;;;;;;1.77;1.10;;;;;;;10.99;79.36;98864.72;4174433;28;20048;-59
2022/09/27 03:35:46;;;;;;;4.00;1.45;;;;;;;10.95;79.84;98857.81;4178967;28;20045;-58
2022/09/27 03:37:50;;;;;;;4.20;1.30;;;;;;;10.97;79.68;98866.44;4194167;28;20044;-59
2022/09/27 03:39:55;;;;;;;2.88;0.80;;;;;;;10.98;79.29;98868.19;4179083;28;20037;-59
2022/09/27 03:41:58;;;;;;;5.55;1.60;;;;;;;11.03;79.13;98867.25;4162709;28;20056;-58
2022/09/27 03:44:01;;;;;;;4.10;1.30;;;;;;;10.94;78.95;98873.44;4161757;28;20407;-59
2022/09/27 03:46:04;;;;;;;3.75;1.40;;;;;;;10.91;78.88;98861.34;4195840;28;20047;-58
2022/09/27 03:48:07;;;;;;;4.28;1.52;;;;;;;10.99;79.02;98875.09;4179060;28;20060;-59
2022/09/27 03:50:11;;;;;;;4.50;1.40;;;;;;;10.96;78.52;98880.31;4179066;28;20032;-59
2022/09/27 03:52:15;;;;;;;1.98;1.23;;;;;;;10.89;78.72;98880.44;4179213;28;20041;-59
2022/09/27 03:54:18;;;;;;;2.65;1.35;;;;;;;10.82;78.92;98882.25;4178281;28;20045;-59
2022/09/27 03:56:23;;;;;;;3.92;1.17;;;;;;;10.81;78.96;98885.72;4179018;28;20053;-58
2022/09/27 03:58:25;;;;;;;5.13;1.90;;;;;;;10.76;78.38;98885.78;4178997;28;20596;-58
2022/09/27 04:00:30;;;;;;;2.33;1.45;;;;;;;10.79;79.06;98888.34;4162568;28;20053;-59
2022/09/27 04:02:34;;;;;;;2.25;1.15;;;;;;;10.78;78.79;98890.97;4179156;28;20037;-59
2022/09/27 04:05:16;;;;;;;8.40;1.90;;;;;;;10.78;79.29;98899.63;4179992;28;20045;-59
2022/09/27 04:07:18;;;;;;;5.40;1.85;;;;;;;10.82;78.79;98900.47;4165358;28;20053;-58
2022/09/27 04:09:21;;;;;;;2.53;1.45;;;;;;;10.83;78.34;98899.56;4181778;28;20041;-59
2022/09/27 04:11:36;;;;;;;3.10;1.40;;;;;;;10.80;78.92;98902.19;4170084;28;20368;-58
2022/09/27 04:13:39;;;;;;;4.15;1.70;;;;;;;10.79;78.46;98903.06;4177650;28;20041;-58
2022/09/27 04:15:43;;;;;;;6.97;1.42;;;;;;;10.84;78.17;98896.09;4181886;28;20122;-59
2022/09/27 04:18:10;;;;;;;5.90;1.55;;;;;;;10.80;79.08;98905.66;4177639;28;20037;-58
2022/09/27 04:20:32;;;;;;;2.53;1.23;;;;;;;10.90;78.37;98900.34;4179820;28;20037;-58
2022/09/27 04:22:40;;;;;;;1.77;1.20;;;;;;;10.93;78.53;98895.97;4180347;28;20037;-56
2022/09/27 04:24:43;;;;;;;2.55;1.15;;;;;;;10.95;77.84;98907.22;4165345;28;20041;-58
2022/09/27 04:27:03;;;;;;;2.75;1.27;;;;;;;10.93;78.45;98908.13;4186921;28;20040;-58
2022/09/27 04:29:08;;;;;;;3.70;1.30;;;;;;;11.01;78.61;98903.69;4181643;28;20044;-57
2022/09/27 04:31:13;;;;;;;2.13;1.08;;;;;;;11.06;78.14;98911.44;4180855;28;20094;-56
2022/09/27 04:33:42;;;;;;;4.95;1.85;;;;;;;11.07;77.52;98903.59;4182871;28;20071;-58
2022/09/27 04:38:19;;;;;;;1.58;1.23;;;;;;;11.10;78.33;98913.97;4181812;28;20041;-58
2022/09/27 04:40:22;;;;;;;7.05;1.75;;;;;;;11.11;78.01;98918.28;4182916;28;20037;-58
2022/09/27 04:42:26;;;;;;;3.15;1.02;;;;;;;11.11;78.12;98910.50;4181684;28;20094;-57
2022/09/27 04:44:30;;;;;;;7.45;1.45;;;;;;;11.14;77.14;98920.84;4180943;28;20044;-58
2022/09/27 04:46:33;;;;;;;2.05;1.17;;;;;;;11.10;76.78;98916.56;4165036;28;20042;-58
2022/09/27 04:48:37;;;;;;;1.50;1.13;;;;;;;11.10;77.31;98919.16;4164989;28;20077;-58
2022/09/27 04:50:40;;;;;;;4.75;1.45;;;;;;;11.13;78.19;98918.28;4181386;28;20041;-57
2022/09/27 04:52:44;;;;;;;3.30;1.33;;;;;;;11.10;77.50;98924.38;4181518;28;20082;-58
2022/09/27 04:54:46;;;;;;;3.60;1.20;;;;;;;11.13;77.81;98924.31;4180659;28;20091;-58
2022/09/27 04:56:50;;;;;;;3.80;1.15;;;;;;;11.17;77.83;98931.22;4182537;28;20052;-58
2022/09/27 04:58:54;;;;;;;1.80;1.00;;;;;;;11.13;77.37;98919.13;4181467;28;20041;-58
2022/09/27 05:00:57;;;;;;;2.33;1.10;;;;;;;11.17;77.69;98926.00;4181398;28;20434;-61
2022/09/27 05:03:29;;;;;;;4.30;0.85;;;;;;;11.08;77.21;98923.53;4181695;28;20080;-61
2022/09/27 05:05:35;;;;;;;3.75;1.17;;;;;;;11.10;76.66;98928.72;4181275;28;20041;-58
2022/09/27 05:07:39;;;;;;;4.03;1.20;;;;;;;11.10;76.38;98933.91;4181246;28;20044;-55
2022/09/27 05:09:46;;;;;;;4.32;1.13;;;;;;;11.12;77.00;98938.19;4181230;28;20041;-58
2022/09/27 05:11:49;;;;;;;1.63;1.10;;;;;;;11.10;77.17;98933.91;4164596;28;20050;-58
2022/09/27 05:14:09;;;;;;;4.03;1.50;;;;;;;11.09;77.30;98942.59;4181696;28;20306;-57
2022/09/27 05:16:22;;;;;;;3.07;1.20;;;;;;;11.08;77.61;98946.06;4180808;28;20045;-58
2022/09/27 05:18:48;;;;;;;7.53;3.60;;;;;;;11.11;77.42;98952.09;4180566;28;20049;-58
2022/09/27 05:21:09;;;;;;;4.90;1.73;;;;;;;11.06;76.87;98953.03;4181027;28;20053;-58
2022/09/27 05:23:19;;;;;;;2.38;1.10;;;;;;;11.05;76.33;98959.97;4180224;28;20045;-58
2022/09/27 05:25:22;;;;;;;1.33;0.90;;;;;;;11.05;77.13;98967.75;4180983;28;20054;-58
2022/09/27 05:27:25;;;;;;;1.88;0.80;;;;;;;11.03;76.11;98964.31;4180964;28;20052;-57
2022/09/27 05:29:29;;;;;;;1.08;0.90;;;;;;;11.00;76.03;98969.56;4180912;28;20041;-58
2022/09/27 05:31:43;;;;;;;3.90;0.95;;;;;;;10.90;76.12;98975.75;4180916;28;20099;-58
2022/09/27 05:33:46;;;;;;;4.95;1.30;;;;;;;10.92;76.17;98972.28;4180033;28;20295;-57
2022/09/27 05:36:05;;;;;;;1.85;0.85;;;;;;;10.92;75.52;98981.78;4180972;28;20037;-57
2022/09/27 05:38:08;;;;;;;1.35;0.57;;;;;;;10.82;75.17;98987.09;4179378;28;20133;-57
2022/09/27 05:40:13;;;;;;;;;;;;;;;10.74;74.99;98988.06;4181127;28;20036;-57
2022/09/27 05:42:38;;;;;;;2.97;0.93;;;;;;;10.76;75.37;98992.38;4180756;28;19920;-57
2022/09/27 05:44:47;;;;;;;0.93;0.75;;;;;;;10.72;74.88;98988.06;4180003;28;20041;-57
2022/09/27 05:46:50;;;;;;;0.90;0.70;;;;;;;10.69;74.75;98992.41;4180758;28;20087;-57
2022/09/27 05:48:53;;;;;;;0.82;0.50;;;;;;;10.68;74.14;98994.16;4180564;28;20037;-57
2022/09/27 05:50:57;;;;;;;2.40;0.93;;;;;;;10.66;74.87;98998.53;4180638;28;20037;-58
2022/09/27 05:53:00;;;;;;;2.55;0.82;;;;;;;10.68;74.81;98994.16;4163900;28;20541;-57
2022/09/27 05:55:03;;;;;;;2.33;0.80;;;;;;;10.70;74.74;99002.81;4163256;28;20128;-58
2022/09/27 05:57:07;;;;;;;2.25;0.73;;;;;;;10.65;74.48;99004.59;4180515;28;20036;-58
2022/09/27 05:59:18;;;;;;;1.23;0.70;;;;;;;10.61;73.79;99008.09;4180489;28;20064;-57
2022/09/27 06:01:41;;;;;;;3.72;0.98;;;;;;;10.64;74.07;99008.06;4180468;28;20056;-58
2022/09/27 06:04:22;;;;;;;4.10;0.70;;;;;;;10.57;74.45;99014.19;4162294;28;20041;-57
2022/09/27 06:06:46;;;;;;;1.70;0.80;;;;;;;10.60;74.51;99016.75;4162733;28;20045;-57
2022/09/27 06:08:50;;;;;;;2.83;1.13;;;;;;;10.67;73.79;99007.19;4151227;28;20050;-57
2022/09/27 06:11:02;;;;;;;0.68;0.65;;;;;;;10.69;74.19;99014.09;4181518;28;20127;-57
2022/09/27 06:13:07;;;;;;;2.00;0.85;;;;;;;10.72;73.48;99002.78;4163560;28;20041;-58
2022/09/27 06:15:13;;;;;;;1.50;0.82;;;;;;;10.72;73.93;99016.66;4179759;28;20045;-58
2022/09/27 06:17:20;;;;;;;3.00;0.85;;;;;;;10.73;73.46;99009.72;4180224;28;20662;-57
2022/09/27 06:19:23;;;;;;;1.45;0.52;;;;;;;10.75;73.28;99014.03;4180121;28;20033;-56
2022/09/27 06:21:27;;;;;;;2.13;1.10;;;;;;;10.80;73.22;99020.03;4180169;28;20132;-57
2022/09/27 06:23:32;;;;;;;2.30;0.80;;;;;;;10.82;72.83;99018.28;4179345;28;20099;-57
2022/09/27 06:25:43;;;;;;;0.80;0.73;;;;;;;10.82;72.02;99023.50;4180128;28;20599;-57
2022/09/27 06:28:19;;;;;;;1.55;0.85;;;;;;;10.73;72.32;99028.78;4179259;28;20056;-57
2022/09/27 06:30:25;;;;;;;1.88;0.70;;;;;;;10.76;72.13;99030.47;4163353;28;20458;-57
2022/09/27 06:32:30;;;;;;;0.82;0.50;;;;;;;10.80;72.85;99032.19;4180171;28;20449;-58
2022/09/27 06:34:48;;;;;;;1.20;0.60;;;;;;;10.84;73.07;99033.88;4179170;28;20076;-58
2022/09/27 06:36:53;;;;;;;3.80;1.27;;;;;;;10.79;72.18;99033.03;4179948;28;20127;-57
2022/09/27 06:38:56;;;;;;;0.57;0.57;;;;;;;10.82;71.59;99031.28;4179924;28;20178;-58
2022/09/27 06:41:08;;;;;;;0.75;0.50;;;;;;;10.80;71.51;99043.44;4181343;28;20045;-57
2022/09/27 06:43:24;;;;;;;0.60;0.60;;;;;;;10.78;71.23;99034.78;4180291;28;20053;-58
2022/09/27 06:45:47;;;;;;;1.55;0.73;;;;;;;10.85;71.78;99047.72;4179713;28;20151;-57
2022/09/27 06:48:17;;;;;;;1.50;0.70;;;;;;;10.78;71.17;99041.75;4179787;28;20518;-58
2022/09/27 06:50:29;;;;;;;2.42;1.15;;;;;;;10.77;70.62;99047.81;4179669;28;20092;-58
2022/09/27 06:52:32;;;;;;;3.47;0.80;;;;;;;10.78;70.19;99047.78;4179838;28;20075;-57
2022/09/27 06:54:35;;;;;;;4.90;1.02;;;;;;;10.81;70.88;99047.75;4178796;28;20037;-57
2022/09/27 06:56:38;;;;;;;0.57;0.50;;;;;;;10.82;70.55;99054.69;4179597;28;20041;-58
2022/09/27 07:01:17;;;;;;;1.55;0.70;;;;;;;10.97;70.97;99051.06;4180759;28;20037;-57
2022/09/27 07:03:42;;;;;;;1.73;0.90;;;;;;;10.93;70.52;99064.13;4176999;28;20041;-58
2022/09/27 07:06:16;;;;;;;2.13;0.80;;;;;;;10.98;71.42;99063.19;4174824;28;20098;-57
2022/09/27 07:08:25;;;;;;;1.98;0.90;;;;;;;11.00;70.83;99068.38;4180725;28;20045;-58
2022/09/27 07:10:31;;;;;;;1.45;0.80;;;;;;;11.03;71.27;99073.56;4179423;28;20041;-58
2022/09/27 07:12:35;;;;;;;1.85;0.60;;;;;;;11.10;71.28;99080.41;4162920;28;20042;-58
2022/09/27 07:14:38;;;;;;;1.43;0.70;;;;;;;11.18;69.93;99083.81;4178658;28;20120;-58
2022/09/27 07:16:45;;;;;;;1.73;0.73;;;;;;;11.19;70.90;99089.88;4195965;28;20052;-58
2022/09/27 07:18:50;;;;;;;0.80;0.60;;;;;;;11.24;70.60;99092.41;4179451;28;20364;-58
2022/09/27 07:20:54;;;;;;;1.70;0.93;;;;;;;11.25;70.64;99100.19;4179382;28;20037;-58
2022/09/27 07:23:02;;;;;;;1.88;0.80;;;;;;;11.14;69.47;99097.72;4179335;28;20515;-58
2022/09/27 07:25:05;;;;;;;1.58;0.77;;;;;;;11.09;69.44;99103.84;4178595;28;20140;-58
2022/09/27 07:27:09;;;;;;;1.15;0.60;;;;;;;11.05;69.15;99108.19;4195936;28;20123;-58
2022/09/27 07:29:12;;;;;;;1.52;0.80;;;;;;;11.07;69.98;99115.97;4179356;28;20047;-58
2022/09/27 07:31:16;;;;;;;1.40;0.80;;;;;;;11.06;69.37;99122.94;4179213;28;20033;-58
2022/09/27 07:33:20;;;;;;;2.53;0.67;;;;;;;11.10;70.33;99116.81;4161821;28;20053;-59
2022/09/27 07:35:26;;;;;;;0.60;0.60;;;;;;;11.14;69.60;99117.66;4162660;28;20292;-58
2022/09/27 07:37:31;;;;;;;3.40;1.08;;;;;;;11.10;70.03;99127.22;4162723;28;20495;-58
2022/09/27 07:39:35;;;;;;;1.60;0.80;;;;;;;11.09;69.23;99129.84;4179748;28;20490;-58
2022/09/27 07:41:39;;;;;;;1.85;0.70;;;;;;;11.05;70.24;99128.16;4166037;28;20431;-58
2022/09/27 07:43:43;;;;;;;1.27;0.70;;;;;;;11.05;69.15;99133.34;4181828;28;20049;-58
2022/09/27 07:45:46;;;;;;;1.50;0.80;;;;;;;11.03;68.77;99138.56;4182534;28;20095;-58
2022/09/27 07:48:14;;;;;;;1.10;0.52;;;;;;;11.03;69.61;99142.91;4182469;28;20045;-58
2022/09/27 07:50:38;;;;;;;1.38;0.73;;;;;;;11.15;69.53;99138.44;4183619;28;20127;-58
2022/09/27 07:52:59;;;;;;;3.83;0.85;;;;;;;11.22;70.13;99141.00;4183611;28;20041;-57
2022/09/27 07:55:13;;;;;;;0.88;0.63;;;;;;;11.31;69.71;99135.69;4181989;28;20091;-58
2022/09/27 07:57:32;;;;;;;1.63;0.50;;;;;;;11.29;69.36;99147.88;4182628;28;20041;-56
2022/09/27 07:59:36;;;;;;;1.17;0.65;;;;;;;11.22;69.89;99152.25;4182256;28;20037;-58
2022/09/27 08:01:41;;;;;;;1.77;0.70;;;;;;;11.25;69.68;99151.38;4182373;28;20044;-58
2022/09/27 08:03:44;;;;;;;0.73;0.70;;;;;;;11.30;69.83;99147.84;4181421;28;20041;-58
2022/09/27 08:05:48;;;;;;;1.23;0.80;;;;;;;11.31;69.41;99144.34;4182189;28;20137;-58
2022/09/27 08:07:55;;;;;;;0.73;0.73;;;;;;;11.35;69.00;99150.41;4182311;28;20041;-58
2022/09/27 08:09:59;;;;;;;2.55;0.70;;;;;;;11.42;69.34;99148.59;4182321;28;20041;-58
2022/09/27 08:12:03;;;;;;;3.88;0.63;;;;;;;11.29;68.50;99153.06;4182064;28;20055;-58
2022/09/27 08:14:06;;;;;;;0.63;0.57;;;;;;;11.23;69.64;99148.78;4181226;28;20040;-56
2022/09/27 08:16:11;;;;;;;2.20;0.70;;;;;;;11.27;69.53;99147.00;4182115;28;20095;-58
2022/09/27 08:18:39;;;;;;;0.68;0.55;;;;;;;11.21;68.53;99150.53;4181831;28;20041;-57
2022/09/27 08:21:02;;;;;;;2.70;0.90;;;;;;;11.27;68.36;99145.28;4181974;28;20043;-57
2022/09/27 08:23:26;;;;;;;1.60;0.55;;;;;;;11.27;68.20;99145.28;4181300;28;20041;-58
2022/09/27 08:25:52;;;;;;;1.92;0.90;;;;;;;11.32;68.07;99142.63;4165529;28;20128;-58
2022/09/27 08:28:04;;;;;;;3.85;0.77;;;;;;;11.29;67.67;99148.72;4181950;28;20037;-58
2022/09/27 08:30:20;;;;;;;2.45;1.02;;;;;;;11.24;68.23;99139.25;4181830;28;20033;-58
2022/09/27 08:32:23;;;;;;;2.80;1.00;;;;;;;11.31;67.50;99140.91;4181757;28;20068;-58
2022/09/27 08:34:28;;;;;;;2.15;0.82;;;;;;;11.27;67.72;99144.41;4180977;28;20052;-58
2022/09/27 08:36:34;;;;;;;2.17;0.93;;;;;;;11.29;68.07;99143.53;4165175;28;20049;-58
2022/09/27 08:38:38;;;;;;;3.30;0.95;;;;;;;11.30;68.07;99152.19;4165250;28;20053;-58
2022/09/27 08:40:51;;;;;;;3.33;0.95;;;;;;;11.29;67.88;99146.13;4198284;28;20064;-58
2022/09/27 08:43:03;;;;;;;2.92;0.80;;;;;;;11.28;67.21;99146.13;4181726;28;20045;-58
2022/09/27 08:45:13;;;;;;;0.70;0.70;;;;;;;11.36;67.61;99146.94;4164450;28;20055;-58
2022/09/27 08:47:18;;;;;;;4.13;1.33;;;;;;;11.33;67.58;99150.41;4181714;28;20041;-58
2022/09/27 08:49:27;;;;;;;2.65;1.23;;;;;;;11.28;68.83;99154.78;4181626;28;20045;-58
2022/09/27 08:51:34;;;;;;;4.60;1.80;;;;;;;11.23;68.30;99163.53;4180611;28;20037;-58
2022/09/27 08:53:42;;;;;;;11.02;2.20;;;;;;;11.28;68.08;99156.53;4180829;28;20044;-58
2022/09/27 08:55:49;;;;;;;7.85;1.88;;;;;;;11.22;68.64;99154.00;4181476;28;20045;-58
2022/09/27 08:57:57;;;;;;;5.93;1.83;;;;;;;11.28;68.74;99161.75;4181525;28;20123;-58
2022/09/27 09:00:05;;;;;;;5.88;1.80;;;;;;;11.30;68.96;99163.47;4164893;28;20052;-58
2022/09/27 09:02:17;;;;;;;6.68;1.83;;;;;;;11.30;68.95;99165.19;4182653;28;20461;-58
2022/09/27 09:04:28;;;;;;;7.80;1.45;;;;;;;11.38;68.98;99158.19;4180585;28;20040;-58
2022/09/27 09:06:40;;;;;;;5.78;2.13;;;;;;;11.47;68.64;99158.06;4180148;28;20060;-58
2022/09/27 09:08:57;;;;;;;2.50;1.20;;;;;;;11.48;68.67;99162.41;4181182;28;20049;-58
2022/09/27 09:13:52;;;;;;;4.57;1.88;;;;;;;11.67;68.58;99159.63;4180330;28;20041;-58
2022/09/27 09:16:03;;;;;;;8.50;1.85;;;;;;;11.80;68.21;99162.94;4181209;28;20308;-58
2022/09/27 09:18:28;;;;;;;4.75;2.78;;;;;;;11.90;67.78;99163.69;4181181;28;20063;-58
2022/09/27 09:20:57;;;;;;;6.65;1.88;;;;;;;11.92;66.82;99154.97;4181127;28;20045;-58
2022/09/27 09:23:17;;;;;;;4.90;1.90;;;;;;;11.93;65.89;99158.44;4181050;28;20033;-58
2022/09/27 09:25:30;;;;;;;6.32;1.83;;;;;;;12.09;66.20;99164.34;4181115;28;20068;-58
2022/09/27 09:27:43;;;;;;;3.30;1.50;;;;;;;12.20;65.71;99158.09;4180900;28;20075;-60
2022/09/27 09:30:05;;;;;;;6.78;1.80;;;;;;;12.17;65.29;99159.91;4180986;28;20048;-58
2022/09/27 09:32:27;;;;;;;4.25;1.60;;;;;;;12.18;65.41;99161.63;4180704;28;20549;-58
2022/09/27 09:34:36;;;;;;;5.60;2.30;;;;;;;12.14;65.23;99167.75;4180178;28;20067;-58
2022/09/27 09:36:45;;;;;;;3.38;1.70;;;;;;;12.10;65.29;99159.09;4180821;28;20040;-58
2022/09/27 09:38:53;;;;;;;3.45;2.00;;;;;;;12.03;64.46;99157.47;4180870;28;20041;-58
2022/09/27 09:41:02;;;;;;;3.38;1.55;;;;;;;12.05;65.27;99160.94;4180893;28;20065;-59
2022/09/27 09:43:13;;;;;;;4.97;1.50;;;;;;;11.95;65.17;99164.53;4180425;28;20120;-58
2022/09/27 09:45:21;;;;;;;3.72;1.70;;;;;;;11.97;65.42;99162.75;4180770;28;20132;-58
2022/09/27 09:47:30;;;;;;;5.03;1.83;;;;;;;11.93;65.37;99166.25;4177404;28;20457;-58
2022/09/27 09:49:40;;;;;;;3.90;1.50;;;;;;;11.93;64.74;99171.44;4164039;28;20049;-58
2022/09/27 09:51:48;;;;;;;5.90;1.67;;;;;;;11.92;65.69;99164.53;4180656;28;20060;-58
2022/09/27 09:53:58;;;;;;;5.55;1.75;;;;;;;11.92;65.19;99164.53;4179886;28;20048;-58
2022/09/27 09:56:14;;;;;;;10.32;2.97;;;;;;;11.97;65.32;99162.75;4180628;28;20063;-58
2022/09/27 09:58:23;;;;;;;6.03;1.95;;;;;;;11.92;65.44;99165.38;4163870;28;20049;-58
2022/09/27 10:00:30;;;;;;;6.93;1.60;;;;;;;11.88;64.61;99161.97;4178968;28;20528;-58
2022/09/27 10:02:36;;;;;;;5.18;1.60;;;;;;;11.90;64.84;99166.28;4178752;28;20193;-58
2022/09/27 10:04:45;;;;;;;3.60;1.42;;;;;;;11.91;64.72;99162.81;4178034;28;20044;-58
2022/09/27 10:06:49;;;;;;;4.13;1.67;;;;;;;11.86;64.94;99171.53;4178668;28;20037;-58
2022/09/27 10:08:55;;;;;;;3.17;1.40;;;;;;;11.78;64.94;99167.28;4178738;28;20209;-58
2022/09/27 10:11:19;;;;;;;5.90;1.63;;;;;;;11.82;65.32;99174.19;4162231;28;20052;-58
2022/09/27 10:13:27;;;;;;;3.40;1.50;;;;;;;11.72;65.24;99168.22;4177951;28;20044;-58
2022/09/27 10:15:35;;;;;;;4.28;1.30;;;;;;;11.65;66.09;99166.56;4195772;28;20041;-58
2022/09/27 10:17:42;;;;;;;2.35;1.40;;;;;;;11.62;66.09;99169.19;4180160;28;20072;-58
2022/09/27 10:19:51;;;;;;;3.63;1.10;;;;;;;11.66;66.50;99173.50;4180217;28;20495;-57
2022/09/27 10:22:01;;;;;;;5.30;1.35;;;;;;;11.57;67.10;99168.41;4180174;28;20128;-58